createdAt,value
2018-12-14T00:00:34.284Z,1015.12
2018-12-14T00:01:34.260Z,1015.15
2018-12-14T00:02:34.250Z,1015.13
2018-12-14T00:03:34.217Z,1015.18
2018-12-14T00:04:34.191Z,1015.15
2018-12-14T00:05:34.165Z,1015.16
2018-12-14T00:06:34.140Z,1015.09
2018-12-14T00:07:34.119Z,1015.11
2018-12-14T00:08:34.096Z,1015.09
2018-12-14T00:09:34.072Z,1015.11
2018-12-14T00:10:34.051Z,1015.09
2018-12-14T00:11:34.023Z,1015.09
2018-12-14T00:12:33.997Z,1015.11
2018-12-14T00:13:33.976Z,1015.09
2018-12-14T00:14:33.950Z,1015.10
2018-12-14T00:15:33.923Z,1015.10
2018-12-14T00:16:33.901Z,1015.11
2018-12-14T00:17:33.883Z,1015.09
2018-12-14T00:18:33.857Z,1015.07
2018-12-14T00:19:33.834Z,1015.09
2018-12-14T00:20:33.804Z,1015.10
2018-12-14T00:21:33.782Z,1015.12
2018-12-14T00:22:33.762Z,1015.10
2018-12-14T00:23:33.732Z,1015.14
2018-12-14T00:24:33.712Z,1015.12
2018-12-14T00:25:33.695Z,1015.14
2018-12-14T00:26:33.666Z,1015.18
2018-12-14T00:27:33.643Z,1015.15
2018-12-14T00:28:33.616Z,1015.16
2018-12-14T00:29:33.599Z,1015.15
2018-12-14T00:30:33.567Z,1015.17
2018-12-14T00:31:33.549Z,1015.15
2018-12-14T00:32:33.520Z,1015.15
2018-12-14T00:33:33.498Z,1015.18
2018-12-14T00:34:33.472Z,1015.22
2018-12-14T00:35:33.449Z,1015.21
2018-12-14T00:36:33.425Z,1015.24
2018-12-14T00:37:33.411Z,1015.23
2018-12-14T00:38:33.377Z,1015.29
2018-12-14T00:39:33.353Z,1015.27
2018-12-14T00:40:33.327Z,1015.29
2018-12-14T00:41:33.311Z,1015.31
2018-12-14T00:42:33.281Z,1015.32
2018-12-14T00:43:33.252Z,1015.31
2018-12-14T00:44:33.230Z,1015.30
2018-12-14T00:45:33.205Z,1015.31
2018-12-14T00:46:33.180Z,1015.34
2018-12-14T00:47:33.158Z,1015.33
2018-12-14T00:48:33.134Z,1015.36
2018-12-14T00:49:33.112Z,1015.33
2018-12-14T00:50:33.087Z,1015.37
2018-12-14T00:51:33.065Z,1015.40
2018-12-14T00:52:33.040Z,1015.39
2018-12-14T00:53:33.013Z,1015.38
2018-12-14T00:54:32.989Z,1015.37
2018-12-14T00:55:32.965Z,1015.36
2018-12-14T00:56:32.941Z,1015.35
2018-12-14T00:57:32.917Z,1015.37
2018-12-14T00:58:32.892Z,1015.37
2018-12-14T00:59:32.868Z,1015.37
2018-12-14T01:00:32.845Z,1015.39
2018-12-14T01:01:32.821Z,1015.35
2018-12-14T01:02:32.805Z,1015.39
2018-12-14T01:03:32.777Z,1015.42
2018-12-14T01:04:32.749Z,1015.43
2018-12-14T01:05:32.722Z,1015.40
2018-12-14T01:06:32.701Z,1015.42
2018-12-14T01:07:32.677Z,1015.38
2018-12-14T01:08:32.651Z,1015.37
2018-12-14T01:09:32.629Z,1015.36
2018-12-14T01:10:32.610Z,1015.36
2018-12-14T01:11:32.580Z,1015.35
2018-12-14T01:12:32.555Z,1015.37
2018-12-14T01:13:32.535Z,1015.38
2018-12-14T01:14:32.506Z,1015.41
2018-12-14T01:15:32.493Z,1015.38
2018-12-14T01:16:32.511Z,1015.40
2018-12-14T01:17:32.438Z,1015.39
2018-12-14T01:18:32.410Z,1015.43
2018-12-14T01:19:32.387Z,1015.44
2018-12-14T01:20:32.362Z,1015.42
2018-12-14T01:21:32.337Z,1015.40
2018-12-14T01:22:32.317Z,1015.42
2018-12-14T01:23:32.292Z,1015.41
2018-12-14T01:24:32.269Z,1015.41
2018-12-14T01:25:32.249Z,1015.42
2018-12-14T01:26:32.223Z,1015.49
2018-12-14T01:27:32.192Z,1015.46
2018-12-14T01:28:32.172Z,1015.48
2018-12-14T01:29:32.143Z,1015.48
2018-12-14T01:30:32.129Z,1015.46
2018-12-14T01:31:32.096Z,1015.48
2018-12-14T01:32:32.079Z,1015.48
2018-12-14T01:33:32.047Z,1015.46
2018-12-14T01:34:32.022Z,1015.46
2018-12-14T01:35:32.003Z,1015.47
2018-12-14T01:36:31.975Z,1015.47
2018-12-14T01:37:31.949Z,1015.46
2018-12-14T01:38:31.926Z,1015.48
2018-12-14T01:39:31.901Z,1015.45
2018-12-14T01:40:31.883Z,1015.47
2018-12-14T01:41:31.852Z,1015.46
2018-12-14T01:42:31.834Z,1015.47
2018-12-14T01:43:31.805Z,1015.51
2018-12-14T01:44:31.783Z,1015.54
2018-12-14T01:45:31.764Z,1015.53
2018-12-14T01:46:31.731Z,1015.53
2018-12-14T01:47:31.712Z,1015.52
2018-12-14T01:48:31.685Z,1015.51
2018-12-14T01:49:31.659Z,1015.52
2018-12-14T01:50:31.634Z,1015.51
2018-12-14T01:51:31.611Z,1015.50
2018-12-14T01:52:31.586Z,1015.50
2018-12-14T01:53:31.563Z,1015.48
2018-12-14T01:54:31.537Z,1015.50
2018-12-14T01:55:31.511Z,1015.47
2018-12-14T01:56:31.489Z,1015.47
2018-12-14T01:57:31.465Z,1015.48
2018-12-14T01:58:31.451Z,1015.45
2018-12-14T01:59:31.423Z,1015.43
2018-12-14T02:00:31.391Z,1015.41
2018-12-14T02:01:31.370Z,1015.37
2018-12-14T02:02:31.341Z,1015.38
2018-12-14T02:03:31.323Z,1015.38
2018-12-14T02:04:31.297Z,1015.39
2018-12-14T02:05:31.273Z,1015.36
2018-12-14T02:06:31.245Z,1015.39
2018-12-14T02:07:31.228Z,1015.39
2018-12-14T02:08:31.200Z,1015.36
2018-12-14T02:09:31.172Z,1015.38
2018-12-14T02:10:31.148Z,1015.34
2018-12-14T02:11:31.126Z,1015.32
2018-12-14T02:12:31.142Z,1015.32
2018-12-14T02:13:31.077Z,1015.35
2018-12-14T02:14:31.052Z,1015.36
2018-12-14T02:15:31.030Z,1015.37
2018-12-14T02:16:31.005Z,1015.39
2018-12-14T02:17:30.978Z,1015.37
2018-12-14T02:18:30.956Z,1015.36
2018-12-14T02:19:30.938Z,1015.36
2018-12-14T02:20:30.914Z,1015.34
2018-12-14T02:21:30.879Z,1015.33
2018-12-14T02:22:30.855Z,1015.34
2018-12-14T02:23:30.837Z,1015.30
2018-12-14T02:24:30.806Z,1015.33
2018-12-14T02:25:30.783Z,1015.31
2018-12-14T02:26:30.775Z,1015.34
2018-12-14T02:27:30.739Z,1015.32
2018-12-14T02:28:30.710Z,1015.31
2018-12-14T02:29:30.686Z,1015.30
2018-12-14T02:30:30.662Z,1015.28
2018-12-14T02:31:30.638Z,1015.36
2018-12-14T02:32:30.613Z,1015.32
2018-12-14T02:33:30.587Z,1015.30
2018-12-14T02:34:30.570Z,1015.28
2018-12-14T02:35:30.549Z,1015.30
2018-12-14T02:36:30.520Z,1015.28
2018-12-14T02:37:30.493Z,1015.29
2018-12-14T02:38:30.474Z,1015.28
2018-12-14T02:39:30.451Z,1015.29
2018-12-14T02:40:30.419Z,1015.31
2018-12-14T02:41:30.394Z,1015.28
2018-12-14T02:42:30.370Z,1015.32
2018-12-14T02:43:30.346Z,1015.31
2018-12-14T02:44:30.319Z,1015.31
2018-12-14T02:45:30.302Z,1015.32
2018-12-14T02:46:30.270Z,1015.32
2018-12-14T02:47:30.252Z,1015.35
2018-12-14T02:48:30.224Z,1015.30
2018-12-14T02:49:30.201Z,1015.33
2018-12-14T02:50:30.174Z,1015.31
2018-12-14T02:51:30.151Z,1015.29
2018-12-14T02:52:30.127Z,1015.30
2018-12-14T02:53:30.106Z,1015.29
2018-12-14T02:54:30.078Z,1015.30
2018-12-14T02:55:30.051Z,1015.30
2018-12-14T02:56:30.030Z,1015.32
2018-12-14T02:57:30.004Z,1015.37
2018-12-14T02:58:29.979Z,1015.32
2018-12-14T02:59:29.958Z,1015.32
2018-12-14T03:00:29.931Z,1015.33
2018-12-14T03:01:29.908Z,1015.35
2018-12-14T03:02:29.883Z,1015.34
2018-12-14T03:03:29.860Z,1015.32
2018-12-14T03:04:29.837Z,1015.31
2018-12-14T03:05:29.814Z,1015.33
2018-12-14T03:06:29.787Z,1015.31
2018-12-14T03:07:29.766Z,1015.34
2018-12-14T03:08:29.738Z,1015.32
2018-12-14T03:09:29.712Z,1015.33
2018-12-14T03:10:29.689Z,1015.29
2018-12-14T03:11:29.664Z,1015.26
2018-12-14T03:12:29.655Z,1015.26
2018-12-14T03:13:29.616Z,1015.24
2018-12-14T03:14:29.592Z,1015.23
2018-12-14T03:15:29.568Z,1015.26
2018-12-14T03:16:29.548Z,1015.20
2018-12-14T03:17:29.525Z,1015.18
2018-12-14T03:18:29.500Z,1015.17
2018-12-14T03:19:29.471Z,1015.22
2018-12-14T03:20:29.451Z,1015.21
2018-12-14T03:21:29.422Z,1015.20
2018-12-14T03:22:29.405Z,1015.23
2018-12-14T03:23:29.377Z,1015.22
2018-12-14T03:24:29.358Z,1015.21
2018-12-14T03:25:29.326Z,1015.26
2018-12-14T03:26:29.304Z,1015.25
2018-12-14T03:27:29.382Z,1015.23
2018-12-14T03:28:29.259Z,1015.20
2018-12-14T03:29:29.227Z,1015.21
2018-12-14T03:30:29.206Z,1015.21
2018-12-14T03:31:29.187Z,1015.15
2018-12-14T03:32:29.160Z,1015.14
2018-12-14T03:33:29.136Z,1015.18
2018-12-14T03:34:29.107Z,1015.18
2018-12-14T03:35:29.089Z,1015.15
2018-12-14T03:36:29.063Z,1015.17
2018-12-14T03:37:29.038Z,1015.17
2018-12-14T03:38:29.012Z,1015.15
2018-12-14T03:39:28.991Z,1015.17
2018-12-14T03:40:28.968Z,1015.15
2018-12-14T03:41:28.943Z,1015.15
2018-12-14T03:42:34.226Z,1015.15
2018-12-14T03:43:28.892Z,1015.15
2018-12-14T03:44:28.868Z,1015.12
2018-12-14T03:45:28.844Z,1015.12
2018-12-14T03:46:28.824Z,1015.13
2018-12-14T03:47:28.800Z,1015.09
2018-12-14T03:48:28.772Z,1015.10
2018-12-14T03:49:28.747Z,1015.10
2018-12-14T03:50:28.765Z,1015.11
2018-12-14T03:51:28.712Z,1015.09
2018-12-14T03:52:28.678Z,1015.14
2018-12-14T03:53:28.648Z,1015.11
2018-12-14T03:54:28.628Z,1015.06
2018-12-14T03:55:28.605Z,1015.14
2018-12-14T03:56:28.587Z,1015.10
2018-12-14T03:57:28.552Z,1015.10
2018-12-14T03:58:28.530Z,1015.09
2018-12-14T03:59:28.508Z,1015.15
2018-12-14T04:00:28.486Z,1015.11
2018-12-14T04:01:28.456Z,1015.10
2018-12-14T04:02:28.436Z,1015.10
2018-12-14T04:03:28.408Z,1015.08
2018-12-14T04:04:28.384Z,1015.08
2018-12-14T04:05:28.365Z,1015.09
2018-12-14T04:06:28.339Z,1015.13
2018-12-14T04:07:28.312Z,1015.12
2018-12-14T04:08:28.288Z,1015.14
2018-12-14T04:09:28.264Z,1015.05
2018-12-14T04:10:28.243Z,1015.09
2018-12-14T04:11:28.216Z,1015.12
2018-12-14T04:12:28.191Z,1015.11
2018-12-14T04:13:28.169Z,1015.13
2018-12-14T04:14:28.144Z,1015.15
2018-12-14T04:15:28.118Z,1015.14
2018-12-14T04:16:28.097Z,1015.16
2018-12-14T04:17:28.069Z,1015.13
2018-12-14T04:18:28.045Z,1015.16
2018-12-14T04:19:28.026Z,1015.20
2018-12-14T04:20:27.998Z,1015.17
2018-12-14T04:21:27.973Z,1015.18
2018-12-14T04:22:27.952Z,1015.20
2018-12-14T04:23:27.924Z,1015.21
2018-12-14T04:24:27.903Z,1015.17
2018-12-14T04:25:27.876Z,1015.17
2018-12-14T04:26:27.855Z,1015.13
2018-12-14T04:27:27.835Z,1015.14
2018-12-14T04:28:27.804Z,1015.14
2018-12-14T04:29:27.794Z,1015.12
2018-12-14T04:30:27.755Z,1015.10
2018-12-14T04:31:27.734Z,1015.13
2018-12-14T04:32:27.709Z,1015.13
2018-12-14T04:33:27.691Z,1015.11
2018-12-14T04:34:27.660Z,1015.09
2018-12-14T04:35:27.634Z,1015.09
2018-12-14T04:36:27.610Z,1015.09
2018-12-14T04:37:27.595Z,1015.10
2018-12-14T04:38:27.562Z,1015.09
2018-12-14T04:39:27.542Z,1015.08
2018-12-14T04:40:27.514Z,1015.05
2018-12-14T04:41:27.489Z,1015.06
2018-12-14T04:42:27.465Z,1015.06
2018-12-14T04:43:27.447Z,1015.06
2018-12-14T04:44:27.547Z,1015.10
2018-12-14T04:45:27.393Z,1015.07
2018-12-14T04:46:27.371Z,1015.06
2018-12-14T04:47:27.350Z,1015.07
2018-12-14T04:48:27.321Z,1015.06
2018-12-14T04:49:27.298Z,1015.00
2018-12-14T04:50:27.279Z,1015.04
2018-12-14T04:51:27.249Z,1015.06
2018-12-14T04:52:27.224Z,1015.08
2018-12-14T04:53:27.202Z,1015.10
2018-12-14T04:54:27.175Z,1015.11
2018-12-14T04:55:27.155Z,1015.10
2018-12-14T04:56:27.127Z,1015.12
2018-12-14T04:57:27.106Z,1015.11
2018-12-14T04:58:27.079Z,1015.14
2018-12-14T04:59:27.056Z,1015.15
2018-12-14T05:00:27.030Z,1015.16
2018-12-14T05:01:27.005Z,1015.16
2018-12-14T05:02:26.982Z,1015.14
2018-12-14T05:03:26.958Z,1015.17
2018-12-14T05:04:26.934Z,1015.16
2018-12-14T05:05:26.909Z,1015.15
2018-12-14T05:06:26.889Z,1015.14
2018-12-14T05:07:26.858Z,1015.11
2018-12-14T05:08:26.841Z,1015.12
2018-12-14T05:09:26.816Z,1015.10
2018-12-14T05:10:26.792Z,1015.10
2018-12-14T05:11:26.762Z,1015.14
2018-12-14T05:12:26.736Z,1015.13
2018-12-14T05:13:26.719Z,1015.12
2018-12-14T05:14:26.690Z,1015.14
2018-12-14T05:15:26.668Z,1015.14
2018-12-14T05:16:26.644Z,1015.17
2018-12-14T05:17:26.618Z,1015.17
2018-12-14T05:18:26.593Z,1015.17
2018-12-14T05:19:26.568Z,1015.17
2018-12-14T05:20:26.545Z,1015.15
2018-12-14T05:21:26.525Z,1015.17
2018-12-14T05:22:26.496Z,1015.16
2018-12-14T05:23:26.470Z,1015.19
2018-12-14T05:24:26.452Z,1015.17
2018-12-14T05:25:26.426Z,1015.18
2018-12-14T05:26:26.399Z,1015.23
2018-12-14T05:27:26.376Z,1015.23
2018-12-14T05:28:26.359Z,1015.26
2018-12-14T05:29:26.326Z,1015.27
2018-12-14T05:30:26.312Z,1015.26
2018-12-14T05:31:26.284Z,1015.27
2018-12-14T05:32:26.257Z,1015.26
2018-12-14T05:33:26.231Z,1015.25
2018-12-14T05:34:26.203Z,1015.23
2018-12-14T05:35:26.184Z,1015.25
2018-12-14T05:36:26.168Z,1015.23
2018-12-14T05:37:26.133Z,1015.24
2018-12-14T05:38:26.105Z,1015.25
2018-12-14T05:39:26.080Z,1015.28
2018-12-14T05:40:26.062Z,1015.26
2018-12-14T05:41:26.040Z,1015.24
2018-12-14T05:42:26.005Z,1015.24
2018-12-14T05:43:25.982Z,1015.27
2018-12-14T05:44:25.963Z,1015.23
2018-12-14T05:45:25.933Z,1015.25
2018-12-14T05:46:25.910Z,1015.26
2018-12-14T05:47:25.887Z,1015.27
2018-12-14T05:48:25.929Z,1015.32
2018-12-14T05:49:25.837Z,1015.25
2018-12-14T05:50:25.813Z,1015.28
2018-12-14T05:51:25.792Z,1015.29
2018-12-14T05:52:25.770Z,1015.32
2018-12-14T05:53:25.741Z,1015.32
2018-12-14T05:54:25.715Z,1015.30
2018-12-14T05:55:25.689Z,1015.29
2018-12-14T05:56:25.664Z,1015.28
2018-12-14T05:57:25.641Z,1015.26
2018-12-14T05:58:26.017Z,1015.28
2018-12-14T05:59:25.591Z,1015.32
2018-12-14T06:00:25.568Z,1015.36
2018-12-14T06:01:25.546Z,1015.33
2018-12-14T06:02:25.519Z,1015.34
2018-12-14T06:03:25.493Z,1015.34
2018-12-14T06:04:25.482Z,1015.36
2018-12-14T06:05:25.447Z,1015.39
2018-12-14T06:06:25.424Z,1015.40
2018-12-14T06:07:25.400Z,1015.36
2018-12-14T06:08:25.371Z,1015.35
2018-12-14T06:09:25.354Z,1015.37
2018-12-14T06:10:25.326Z,1015.36
2018-12-14T06:11:25.299Z,1015.33
2018-12-14T06:12:25.275Z,1015.36
2018-12-14T06:13:25.249Z,1015.35
2018-12-14T06:14:25.226Z,1015.39
2018-12-14T06:15:25.201Z,1015.39
2018-12-14T06:16:25.181Z,1015.43
2018-12-14T06:17:25.151Z,1015.41
2018-12-14T06:18:25.129Z,1015.47
2018-12-14T06:19:25.102Z,1015.47
2018-12-14T06:20:25.075Z,1015.47
2018-12-14T06:21:25.557Z,1015.51
2018-12-14T06:22:25.028Z,1015.50
2018-12-14T06:23:25.012Z,1015.51
2018-12-14T06:24:24.979Z,1015.54
2018-12-14T06:25:24.955Z,1015.53
2018-12-14T06:26:24.930Z,1015.55
2018-12-14T06:27:24.903Z,1015.57
2018-12-14T06:28:26.023Z,1015.55
2018-12-14T06:29:24.858Z,1015.59
2018-12-14T06:30:24.832Z,1015.58
2018-12-14T06:31:24.814Z,1015.60
2018-12-14T06:32:24.779Z,1015.63
2018-12-14T06:33:24.759Z,1015.63
2018-12-14T06:34:24.735Z,1015.61
2018-12-14T06:35:24.708Z,1015.65
2018-12-14T06:36:24.683Z,1015.66
2018-12-14T06:37:24.657Z,1015.68
2018-12-14T06:38:24.633Z,1015.67
2018-12-14T06:39:24.607Z,1015.73
2018-12-14T06:40:24.583Z,1015.71
2018-12-14T06:41:24.562Z,1015.74
2018-12-14T06:42:24.532Z,1015.73
2018-12-14T06:43:24.519Z,1015.75
2018-12-14T06:44:24.485Z,1015.78
2018-12-14T06:45:24.458Z,1015.75
2018-12-14T06:46:24.436Z,1015.77
2018-12-14T06:47:24.414Z,1015.83
2018-12-14T06:48:24.388Z,1015.79
2018-12-14T06:49:24.365Z,1015.79
2018-12-14T06:50:24.337Z,1015.82
2018-12-14T06:51:24.312Z,1015.78
2018-12-14T06:52:24.292Z,1015.82
2018-12-14T06:53:24.263Z,1015.79
2018-12-14T06:54:24.238Z,1015.82
2018-12-14T06:55:24.225Z,1015.84
2018-12-14T06:56:24.189Z,1015.84
2018-12-14T06:57:24.901Z,1015.85
2018-12-14T06:58:24.143Z,1015.86
2018-12-14T06:59:24.115Z,1015.86
2018-12-14T07:00:24.091Z,1015.86
2018-12-14T07:01:24.066Z,1015.88
2018-12-14T07:02:24.043Z,1015.96
2018-12-14T07:03:24.019Z,1015.94
2018-12-14T07:04:23.999Z,1015.99
2018-12-14T07:05:23.970Z,1016.04
2018-12-14T07:06:23.943Z,1015.99
2018-12-14T07:07:23.919Z,1016.03
2018-12-14T07:08:23.896Z,1016.02
2018-12-14T07:09:23.868Z,1016.02
2018-12-14T07:10:23.847Z,1016.02
2018-12-14T07:11:23.824Z,1016.06
2018-12-14T07:12:23.798Z,1016.09
2018-12-14T07:13:23.770Z,1016.05
2018-12-14T07:14:23.748Z,1016.10
2018-12-14T07:15:23.730Z,1016.11
2018-12-14T07:16:23.696Z,1016.15
2018-12-14T07:17:23.671Z,1016.15
2018-12-14T07:18:23.650Z,1016.18
2018-12-14T07:19:23.626Z,1016.19
2018-12-14T07:20:23.600Z,1016.18
2018-12-14T07:21:23.570Z,1016.20
2018-12-14T07:22:23.548Z,1016.18
2018-12-14T07:23:23.522Z,1016.18
2018-12-14T07:24:23.502Z,1016.21
2018-12-14T07:25:23.476Z,1016.18
2018-12-14T07:26:23.455Z,1016.16
2018-12-14T07:27:23.425Z,1016.20
2018-12-14T07:28:23.401Z,1016.22
2018-12-14T07:29:23.375Z,1016.18
2018-12-14T07:30:23.351Z,1016.20
2018-12-14T07:31:23.325Z,1016.22
2018-12-14T07:32:23.302Z,1016.23
2018-12-14T07:33:23.274Z,1016.22
2018-12-14T07:34:23.252Z,1016.21
2018-12-14T07:35:23.227Z,1016.26
2018-12-14T07:36:23.203Z,1016.26
2018-12-14T07:37:23.181Z,1016.25
2018-12-14T07:38:23.153Z,1016.27
2018-12-14T07:39:23.133Z,1016.26
2018-12-14T07:40:23.103Z,1016.24
2018-12-14T07:41:23.077Z,1016.23
2018-12-14T07:42:23.059Z,1016.27
2018-12-14T07:43:28.317Z,1016.24
2018-12-14T07:44:23.082Z,1016.26
2018-12-14T07:45:22.986Z,1016.29
2018-12-14T07:46:22.958Z,1016.32
2018-12-14T07:47:22.931Z,1016.35
2018-12-14T07:48:22.915Z,1016.37
2018-12-14T07:49:22.887Z,1016.37
2018-12-14T07:50:22.863Z,1016.40
2018-12-14T07:51:22.832Z,1016.45
2018-12-14T07:52:22.809Z,1016.45
2018-12-14T07:53:22.793Z,1016.43
2018-12-14T07:54:22.768Z,1016.43
2018-12-14T07:55:22.742Z,1016.43
2018-12-14T07:56:22.710Z,1016.43
2018-12-14T07:57:22.690Z,1016.43
2018-12-14T07:58:22.673Z,1016.47
2018-12-14T07:59:22.645Z,1016.49
2018-12-14T08:00:22.617Z,1016.52
2018-12-14T08:01:22.594Z,1016.51
2018-12-14T08:02:22.564Z,1016.51
2018-12-14T08:03:22.547Z,1016.54
2018-12-14T08:04:22.520Z,1016.53
2018-12-14T08:05:22.498Z,1016.56
2018-12-14T08:06:22.470Z,1016.56
2018-12-14T08:07:22.442Z,1016.56
2018-12-14T08:08:22.423Z,1016.56
2018-12-14T08:09:22.396Z,1016.55
2018-12-14T08:10:22.372Z,1016.58
2018-12-14T08:11:22.353Z,1016.58
2018-12-14T08:12:22.327Z,1016.60
2018-12-14T08:13:22.300Z,1016.64
2018-12-14T08:14:22.270Z,1016.62
2018-12-14T08:15:22.247Z,1016.60
2018-12-14T08:16:22.222Z,1016.61
2018-12-14T08:17:22.201Z,1016.65
2018-12-14T08:18:22.173Z,1016.66
2018-12-14T08:19:22.149Z,1016.66
2018-12-14T08:20:22.132Z,1016.69
2018-12-14T08:21:22.107Z,1016.67
2018-12-14T08:22:22.081Z,1016.68
2018-12-14T08:23:22.058Z,1016.71
2018-12-14T08:24:22.027Z,1016.70
2018-12-14T08:25:22.010Z,1016.71
2018-12-14T08:26:21.983Z,1016.73
2018-12-14T08:27:21.955Z,1016.70
2018-12-14T08:28:21.932Z,1016.70
2018-12-14T08:29:21.910Z,1016.76
2018-12-14T08:30:21.882Z,1016.84
2018-12-14T08:31:21.858Z,1016.93
2018-12-14T08:32:21.834Z,1016.92
2018-12-14T08:33:21.808Z,1016.94
2018-12-14T08:34:21.793Z,1016.95
2018-12-14T08:35:21.762Z,1017.00
2018-12-14T08:36:21.739Z,1017.01
2018-12-14T08:37:21.715Z,1017.03
2018-12-14T08:38:21.718Z,1017.10
2018-12-14T08:39:21.689Z,1017.12
2018-12-14T08:40:21.649Z,1017.12
2018-12-14T08:41:21.624Z,1017.22
2018-12-14T08:42:21.611Z,1017.30
2018-12-14T08:43:21.588Z,1017.27
2018-12-14T08:44:21.572Z,1017.04
2018-12-14T08:45:21.550Z,1017.17
2018-12-14T08:46:21.515Z,1017.29
2018-12-14T08:47:21.498Z,1017.36
2018-12-14T08:48:21.477Z,1017.27
2018-12-14T08:49:21.455Z,1017.19
2018-12-14T08:50:21.440Z,1017.21
2018-12-14T08:51:21.417Z,1017.42
2018-12-14T08:52:21.396Z,1017.44
2018-12-14T08:53:21.371Z,1017.53
2018-12-14T08:54:21.354Z,1017.48
2018-12-14T08:55:21.325Z,1017.46
2018-12-14T08:56:21.307Z,1017.35
2018-12-14T08:57:21.283Z,1017.37
2018-12-14T08:58:21.263Z,1017.42
2018-12-14T08:59:21.248Z,1017.46
2018-12-14T09:00:21.227Z,1017.48
2018-12-14T09:01:21.214Z,1017.50
2018-12-14T09:02:21.194Z,1017.56
2018-12-14T09:03:21.174Z,1017.57
2018-12-14T09:04:21.156Z,1017.54
2018-12-14T09:05:21.132Z,1017.59
2018-12-14T09:06:21.116Z,1017.60
2018-12-14T09:07:24.489Z,1017.60
2018-12-14T09:08:21.087Z,1017.66
2018-12-14T09:09:21.065Z,1017.67
2018-12-14T09:10:21.055Z,1017.69
2018-12-14T09:11:21.031Z,1017.74
2018-12-14T09:12:21.017Z,1017.81
2018-12-14T09:13:21.000Z,1017.83
2018-12-14T09:14:20.985Z,1017.83
2018-12-14T09:15:20.967Z,1017.88
2018-12-14T09:16:20.961Z,1017.97
2018-12-14T09:17:20.939Z,1017.94
2018-12-14T09:18:20.921Z,1017.95
2018-12-14T09:19:20.909Z,1018.02
2018-12-14T09:20:20.891Z,1017.99
2018-12-14T09:21:20.877Z,1018.06
2018-12-14T09:22:20.869Z,1018.08
2018-12-14T09:23:20.845Z,1018.10
2018-12-14T09:24:20.831Z,1018.08
2018-12-14T09:25:20.818Z,1018.07
2018-12-14T09:26:20.802Z,1018.13
2018-12-14T09:27:20.789Z,1018.15
2018-12-14T09:28:20.773Z,1018.17
2018-12-14T09:29:20.767Z,1018.22
2018-12-14T09:30:20.746Z,1018.23
2018-12-14T09:31:20.733Z,1018.25
2018-12-14T09:32:20.727Z,1018.31
2018-12-14T09:33:20.708Z,1018.32
2018-12-14T09:34:20.692Z,1018.37
2018-12-14T09:35:20.678Z,1018.37
2018-12-14T09:36:20.663Z,1018.41
2018-12-14T09:37:20.650Z,1018.23
2018-12-14T09:38:20.642Z,1018.42
2018-12-14T09:39:20.630Z,1018.47
2018-12-14T09:40:20.622Z,1018.52
2018-12-14T09:41:20.596Z,1017.95
2018-12-14T09:42:20.586Z,1018.18
2018-12-14T09:43:20.572Z,1018.10
2018-12-14T09:44:20.567Z,1018.13
2018-12-14T09:45:20.544Z,1018.65
2018-12-14T09:46:20.526Z,1018.09
2018-12-14T09:47:20.509Z,1018.71
2018-12-14T09:48:20.503Z,1018.54
2018-12-14T09:49:20.479Z,1017.66
2018-12-14T09:50:20.469Z,1018.07
2018-12-14T09:51:20.457Z,1018.79
2018-12-14T09:52:20.444Z,1018.94
2018-12-14T09:53:20.427Z,1018.99
2018-12-14T09:54:20.409Z,1019.10
2018-12-14T09:55:20.402Z,1018.83
2018-12-14T09:56:20.377Z,1018.11
2018-12-14T09:57:20.368Z,1017.81
2018-12-14T09:58:20.348Z,1018.40
2018-12-14T09:59:20.335Z,1019.09
2018-12-14T10:00:20.322Z,1019.06
2018-12-14T10:01:20.305Z,1018.11
2018-12-14T10:02:20.297Z,1017.78
2018-12-14T10:03:20.277Z,1018.79
2018-12-14T10:04:20.262Z,1018.60
2018-12-14T10:05:20.246Z,1018.19
2018-12-14T10:06:20.233Z,1018.73
2018-12-14T10:07:20.235Z,1018.79
2018-12-14T10:08:20.204Z,1018.71
2018-12-14T10:09:20.192Z,1018.74
2018-12-14T10:10:20.176Z,1018.75
2018-12-14T10:11:20.162Z,1018.73
2018-12-14T10:12:20.147Z,1018.72
2018-12-14T10:13:20.135Z,1018.72
2018-12-14T10:14:20.121Z,1018.72
2018-12-14T10:15:20.109Z,1018.79
2018-12-14T10:16:20.101Z,1018.78
2018-12-14T10:17:21.566Z,1018.83
2018-12-14T10:18:20.067Z,1018.86
2018-12-14T10:19:20.055Z,1018.87
2018-12-14T10:20:20.045Z,1017.67
2018-12-14T10:21:20.028Z,1017.65
2018-12-14T10:22:20.021Z,1017.63
2018-12-14T10:23:20.003Z,1017.57
2018-12-14T10:24:19.987Z,1017.54
2018-12-14T10:25:19.971Z,1017.49
2018-12-14T10:26:19.955Z,1017.49
2018-12-14T10:27:19.940Z,1017.46
2018-12-14T10:28:19.927Z,1017.44
2018-12-14T10:29:19.907Z,1017.40
2018-12-14T10:30:19.897Z,1017.38
2018-12-14T10:31:19.875Z,1017.36
2018-12-14T10:32:19.856Z,1017.34
2018-12-14T10:33:19.984Z,1017.29
2018-12-14T10:34:19.819Z,1017.31
2018-12-14T10:35:19.803Z,1017.28
2018-12-14T10:36:19.784Z,1017.25
2018-12-14T10:37:19.765Z,1017.24
2018-12-14T10:38:19.749Z,1017.27
2018-12-14T10:39:19.727Z,1017.19
2018-12-14T10:40:19.707Z,1017.23
2018-12-14T10:41:19.691Z,1017.15
2018-12-14T10:42:19.672Z,1017.18
2018-12-14T10:43:19.651Z,1017.15
2018-12-14T10:44:19.631Z,1017.17
2018-12-14T10:45:19.614Z,1017.14
2018-12-14T10:46:19.591Z,1017.14
2018-12-14T10:47:19.572Z,1017.13
2018-12-14T10:48:19.557Z,1017.13
2018-12-14T10:49:19.531Z,1017.13
2018-12-14T10:50:19.511Z,1017.12
2018-12-14T10:51:19.491Z,1017.08
2018-12-14T10:52:19.471Z,1017.10
2018-12-14T10:53:19.462Z,1017.07
2018-12-14T10:54:19.435Z,1017.06
2018-12-14T10:55:19.408Z,1017.09
2018-12-14T10:56:19.391Z,1017.04
2018-12-14T10:57:19.371Z,1017.06
2018-12-14T10:58:20.453Z,1017.03
2018-12-14T10:59:19.426Z,1016.99
2018-12-14T11:00:19.307Z,1017.00
2018-12-14T11:01:19.347Z,1016.99
2018-12-14T11:02:19.267Z,1017.00
2018-12-14T11:03:19.258Z,1017.03
2018-12-14T11:04:19.226Z,1016.96
2018-12-14T11:05:19.208Z,1016.99
2018-12-14T11:06:19.182Z,1017.01
2018-12-14T11:07:19.159Z,1016.95
2018-12-14T11:08:19.138Z,1016.95
2018-12-14T11:09:19.117Z,1016.98
2018-12-14T11:10:19.105Z,1016.97
2018-12-14T11:11:19.077Z,1016.97
2018-12-14T11:12:19.057Z,1016.92
2018-12-14T11:13:19.041Z,1016.93
2018-12-14T11:14:19.014Z,1016.93
2018-12-14T11:15:18.993Z,1016.94
2018-12-14T11:16:18.980Z,1016.91
2018-12-14T11:17:18.949Z,1016.95
2018-12-14T11:18:18.929Z,1016.92
2018-12-14T11:19:18.904Z,1016.96
2018-12-14T11:20:18.882Z,1016.95
2018-12-14T11:21:18.864Z,1016.94
2018-12-14T11:22:18.839Z,1016.92
2018-12-14T11:23:18.817Z,1016.92
2018-12-14T11:24:18.797Z,1016.95
2018-12-14T11:25:18.773Z,1016.92
2018-12-14T11:26:18.753Z,1016.88
2018-12-14T11:27:18.731Z,1016.87
2018-12-14T11:28:18.711Z,1016.87
2018-12-14T11:29:18.689Z,1016.91
2018-12-14T11:30:18.675Z,1016.91
2018-12-14T11:31:18.649Z,1016.91
2018-12-14T11:32:18.623Z,1016.89
2018-12-14T11:33:18.603Z,1016.94
2018-12-14T11:34:18.580Z,1016.96
2018-12-14T11:35:18.563Z,1016.93
2018-12-14T11:36:18.540Z,1016.92
2018-12-14T11:37:18.522Z,1016.92
2018-12-14T11:38:18.492Z,1016.94
2018-12-14T11:39:18.485Z,1016.94
2018-12-14T11:40:18.451Z,1016.97
2018-12-14T11:41:18.760Z,1016.92
2018-12-14T11:42:18.410Z,1016.89
2018-12-14T11:43:18.383Z,1016.90
2018-12-14T11:44:21.276Z,1016.94
2018-12-14T11:45:18.342Z,1016.94
2018-12-14T11:46:18.325Z,1016.91
2018-12-14T11:47:18.442Z,1016.90
2018-12-14T11:48:18.279Z,1016.87
2018-12-14T11:49:18.258Z,1016.96
2018-12-14T11:50:18.235Z,1016.92
2018-12-14T11:51:18.213Z,1016.90
2018-12-14T11:52:18.191Z,1016.90
2018-12-14T11:53:18.173Z,1016.91
2018-12-14T11:54:18.145Z,1016.95
2018-12-14T11:55:18.123Z,1016.93
2018-12-14T11:56:18.103Z,1016.95
2018-12-14T11:57:18.078Z,1016.94
2018-12-14T11:58:18.056Z,1016.93
2018-12-14T11:59:18.034Z,1016.94
2018-12-14T12:00:18.019Z,1016.89
2018-12-14T12:01:17.993Z,1016.90
2018-12-14T12:02:17.982Z,1016.89
2018-12-14T12:03:17.957Z,1016.89
2018-12-14T12:04:17.928Z,1016.89
2018-12-14T12:05:17.910Z,1016.93